sensor_id;sensor_type;location;lat;lon;timestamp;temperature;humidity
58153;DHT22;43967;51.634;5.566;2024-03-22T00:03:25;18.00;63.10
58153;DHT22;43967;51.634;5.566;2024-03-22T00:08:46;18.00;63.10
58153;DHT22;43967;51.634;5.566;2024-03-22T00:14:08;18.00;63.20
58153;DHT22;43967;51.634;5.566;2024-03-22T00:19:29;18.00;63.10
58153;DHT22;43967;51.634;5.566;2024-03-22T00:24:50;18.00;63.10
58153;DHT22;43967;51.634;5.566;2024-03-22T00:30:12;18.00;63.10
58153;DHT22;43967;51.634;5.566;2024-03-22T00:35:33;18.00;63.10
58153;DHT22;43967;51.634;5.566;2024-03-22T00:40:54;18.00;63.20
58153;DHT22;43967;51.634;5.566;2024-03-22T00:46:16;18.00;63.10
58153;DHT22;43967;51.634;5.566;2024-03-22T00:51:37;18.00;63.10
58153;DHT22;43967;51.634;5.566;2024-03-22T00:56:58;18.00;63.10
58153;DHT22;43967;51.634;5.566;2024-03-22T01:02:19;18.00;63.10
58153;DHT22;43967;51.634;5.566;2024-03-22T01:07:41;18.00;63.90
58153;DHT22;43967;51.634;5.566;2024-03-22T01:13:02;18.00;63.20
58153;DHT22;43967;51.634;5.566;2024-03-22T01:18:23;18.00;63.30
58153;DHT22;43967;51.634;5.566;2024-03-22T01:23:44;18.00;63.20
58153;DHT22;43967;51.634;5.566;2024-03-22T01:29:06;18.00;63.20
58153;DHT22;43967;51.634;5.566;2024-03-22T01:34:27;18.00;63.30
58153;DHT22;43967;51.634;5.566;2024-03-22T01:39:48;18.00;63.20
58153;DHT22;43967;51.634;5.566;2024-03-22T01:45:11;18.00;63.30
58153;DHT22;43967;51.634;5.566;2024-03-22T01:50:35;18.00;63.20
58153;DHT22;43967;51.634;5.566;2024-03-22T01:55:56;18.00;63.30
58153;DHT22;43967;51.634;5.566;2024-03-22T02:01:17;18.00;63.30
58153;DHT22;43967;51.634;5.566;2024-03-22T02:06:39;17.90;63.30
58153;DHT22;43967;51.634;5.566;2024-03-22T02:12:00;17.90;63.20
58153;DHT22;43967;51.634;5.566;2024-03-22T02:17:22;17.90;63.20
58153;DHT22;43967;51.634;5.566;2024-03-22T02:22:43;17.90;63.20
58153;DHT22;43967;51.634;5.566;2024-03-22T02:28:04;17.90;63.30
58153;DHT22;43967;51.634;5.566;2024-03-22T02:33:26;17.90;63.20
58153;DHT22;43967;51.634;5.566;2024-03-22T02:38:47;17.90;63.20
58153;DHT22;43967;51.634;5.566;2024-03-22T02:44:08;17.90;63.20
58153;DHT22;43967;51.634;5.566;2024-03-22T02:49:30;17.90;63.30
58153;DHT22;43967;51.634;5.566;2024-03-22T02:54:51;17.90;63.30
58153;DHT22;43967;51.634;5.566;2024-03-22T03:00:12;17.90;63.20
58153;DHT22;43967;51.634;5.566;2024-03-22T03:05:34;17.90;63.30
58153;DHT22;43967;51.634;5.566;2024-03-22T03:10:55;17.90;63.30
58153;DHT22;43967;51.634;5.566;2024-03-22T03:16:16;17.90;63.20
58153;DHT22;43967;51.634;5.566;2024-03-22T03:21:37;17.90;63.20
58153;DHT22;43967;51.634;5.566;2024-03-22T03:26:59;17.90;63.20
58153;DHT22;43967;51.634;5.566;2024-03-22T03:32:20;17.90;63.40
58153;DHT22;43967;51.634;5.566;2024-03-22T03:37:41;17.90;63.30
58153;DHT22;43967;51.634;5.566;2024-03-22T03:43:03;17.90;63.40
58153;DHT22;43967;51.634;5.566;2024-03-22T03:48:24;17.90;63.30
58153;DHT22;43967;51.634;5.566;2024-03-22T03:53:45;17.90;63.30
58153;DHT22;43967;51.634;5.566;2024-03-22T03:59:06;17.90;63.30
58153;DHT22;43967;51.634;5.566;2024-03-22T04:04:28;17.90;63.30
58153;DHT22;43967;51.634;5.566;2024-03-22T04:09:49;17.90;63.20
58153;DHT22;43967;51.634;5.566;2024-03-22T04:15:10;17.90;63.30
58153;DHT22;43967;51.634;5.566;2024-03-22T04:20:32;17.90;63.40
58153;DHT22;43967;51.634;5.566;2024-03-22T04:31:15;17.90;63.40
58153;DHT22;43967;51.634;5.566;2024-03-22T04:36:36;17.80;63.20
58153;DHT22;43967;51.634;5.566;2024-03-22T04:41:57;17.90;63.30
58153;DHT22;43967;51.634;5.566;2024-03-22T04:47:19;17.80;63.20
58153;DHT22;43967;51.634;5.566;2024-03-22T04:52:41;17.90;63.30
58153;DHT22;43967;51.634;5.566;2024-03-22T04:58:02;17.80;63.30
58153;DHT22;43967;51.634;5.566;2024-03-22T05:03:23;17.80;63.30
58153;DHT22;43967;51.634;5.566;2024-03-22T05:08:45;17.80;63.30
58153;DHT22;43967;51.634;5.566;2024-03-22T05:14:06;17.80;63.30
58153;DHT22;43967;51.634;5.566;2024-03-22T05:19:27;17.80;63.30
58153;DHT22;43967;51.634;5.566;2024-03-22T05:24:48;17.90;63.40
58153;DHT22;43967;51.634;5.566;2024-03-22T05:30:11;17.80;63.30
58153;DHT22;43967;51.634;5.566;2024-03-22T05:35:32;17.80;63.20
58153;DHT22;43967;51.634;5.566;2024-03-22T05:40:53;17.80;63.20
58153;DHT22;43967;51.634;5.566;2024-03-22T05:46:15;17.80;63.20
58153;DHT22;43967;51.634;5.566;2024-03-22T05:51:36;17.80;63.10
58153;DHT22;43967;51.634;5.566;2024-03-22T05:56:57;17.90;63.20
58153;DHT22;43967;51.634;5.566;2024-03-22T06:02:19;17.80;63.00
58153;DHT22;43967;51.634;5.566;2024-03-22T06:07:40;17.90;63.10
58153;DHT22;43967;51.634;5.566;2024-03-22T06:13:01;17.80;63.30
58153;DHT22;43967;51.634;5.566;2024-03-22T06:18:23;17.80;63.50
58153;DHT22;43967;51.634;5.566;2024-03-22T06:23:45;17.80;63.40
58153;DHT22;43967;51.634;5.566;2024-03-22T06:29:06;17.90;63.20
58153;DHT22;43967;51.634;5.566;2024-03-22T06:34:28;17.90;63.20
58153;DHT22;43967;51.634;5.566;2024-03-22T06:39:49;17.90;63.00
58153;DHT22;43967;51.634;5.566;2024-03-22T06:45:11;17.90;63.30
58153;DHT22;43967;51.634;5.566;2024-03-22T06:50:32;17.80;63.50
58153;DHT22;43967;51.634;5.566;2024-03-22T06:55:54;17.80;63.70
58153;DHT22;43967;51.634;5.566;2024-03-22T07:01:15;17.80;63.80
58153;DHT22;43967;51.634;5.566;2024-03-22T07:06:37;17.80;63.80
58153;DHT22;43967;51.634;5.566;2024-03-22T07:11:58;17.80;63.50
58153;DHT22;43967;51.634;5.566;2024-03-22T07:17:19;17.80;63.20
58153;DHT22;43967;51.634;5.566;2024-03-22T07:22:40;17.90;63.10
58153;DHT22;43967;51.634;5.566;2024-03-22T07:28:02;17.90;63.00
58153;DHT22;43967;51.634;5.566;2024-03-22T07:33:23;17.90;62.90
58153;DHT22;43967;51.634;5.566;2024-03-22T07:38:45;18.00;62.80
58153;DHT22;43967;51.634;5.566;2024-03-22T07:44:06;18.00;62.80
58153;DHT22;43967;51.634;5.566;2024-03-22T07:49:27;18.00;62.80
58153;DHT22;43967;51.634;5.566;2024-03-22T07:54:49;18.00;62.70
58153;DHT22;43967;51.634;5.566;2024-03-22T08:00:11;18.00;62.70
58153;DHT22;43967;51.634;5.566;2024-03-22T08:05:32;18.00;62.70
58153;DHT22;43967;51.634;5.566;2024-03-22T08:10:53;18.00;63.90
58153;DHT22;43967;51.634;5.566;2024-03-22T08:16:15;18.10;65.10
58153;DHT22;43967;51.634;5.566;2024-03-22T08:21:36;18.10;65.80
58153;DHT22;43967;51.634;5.566;2024-03-22T08:26:57;18.20;66.10
58153;DHT22;43967;51.634;5.566;2024-03-22T08:32:18;18.10;66.20
58153;DHT22;43967;51.634;5.566;2024-03-22T08:37:40;18.20;66.30
58153;DHT22;43967;51.634;5.566;2024-03-22T08:43:01;18.20;66.40
58153;DHT22;43967;51.634;5.566;2024-03-22T08:48:22;18.20;66.60
58153;DHT22;43967;51.634;5.566;2024-03-22T08:53:44;18.20;66.70
58153;DHT22;43967;51.634;5.566;2024-03-22T08:59:06;18.20;66.70
58153;DHT22;43967;51.634;5.566;2024-03-22T09:04:27;18.20;66.80
58153;DHT22;43967;51.634;5.566;2024-03-22T09:09:48;18.30;66.90
58153;DHT22;43967;51.634;5.566;2024-03-22T09:15:09;18.30;67.00
58153;DHT22;43967;51.634;5.566;2024-03-22T09:20:31;18.40;67.20
58153;DHT22;43967;51.634;5.566;2024-03-22T09:25:52;18.40;67.20
58153;DHT22;43967;51.634;5.566;2024-03-22T09:31:13;18.50;67.20
58153;DHT22;43967;51.634;5.566;2024-03-22T09:36:35;18.50;67.20
58153;DHT22;43967;51.634;5.566;2024-03-22T09:41:57;18.50;67.20
58153;DHT22;43967;51.634;5.566;2024-03-22T09:47:19;18.60;67.10
58153;DHT22;43967;51.634;5.566;2024-03-22T09:52:41;18.60;67.10
58153;DHT22;43967;51.634;5.566;2024-03-22T09:58:03;18.60;67.00
58153;DHT22;43967;51.634;5.566;2024-03-22T10:03:27;18.60;67.00
58153;DHT22;43967;51.634;5.566;2024-03-22T10:08:48;18.70;67.00
58153;DHT22;43967;51.634;5.566;2024-03-22T10:14:09;18.70;67.00
58153;DHT22;43967;51.634;5.566;2024-03-22T10:19:30;18.70;67.00
58153;DHT22;43967;51.634;5.566;2024-03-22T10:24:52;18.70;67.60
58153;DHT22;43967;51.634;5.566;2024-03-22T10:30:15;18.70;66.90
58153;DHT22;43967;51.634;5.566;2024-03-22T10:35:37;18.70;66.80
58153;DHT22;43967;51.634;5.566;2024-03-22T10:41:00;18.70;66.70
58153;DHT22;43967;51.634;5.566;2024-03-22T10:46:27;18.80;66.70
58153;DHT22;43967;51.634;5.566;2024-03-22T10:51:58;18.80;66.60
58153;DHT22;43967;51.634;5.566;2024-03-22T10:57:20;18.90;66.70
58153;DHT22;43967;51.634;5.566;2024-03-22T11:02:45;18.90;66.60
58153;DHT22;43967;51.634;5.566;2024-03-22T11:08:06;18.80;66.60
58153;DHT22;43967;51.634;5.566;2024-03-22T11:13:27;18.90;66.50
58153;DHT22;43967;51.634;5.566;2024-03-22T11:18:49;18.90;66.30
58153;DHT22;43967;51.634;5.566;2024-03-22T11:24:10;19.00;66.10
58153;DHT22;43967;51.634;5.566;2024-03-22T11:29:31;19.00;66.00
58153;DHT22;43967;51.634;5.566;2024-03-22T11:34:53;19.00;65.90
58153;DHT22;43967;51.634;5.566;2024-03-22T11:40:14;19.10;65.90
58153;DHT22;43967;51.634;5.566;2024-03-22T11:45:35;19.10;65.80
58153;DHT22;43967;51.634;5.566;2024-03-22T11:50:57;19.10;65.70
58153;DHT22;43967;51.634;5.566;2024-03-22T11:56:19;19.10;65.70
58153;DHT22;43967;51.634;5.566;2024-03-22T12:01:41;19.10;65.70
58153;DHT22;43967;51.634;5.566;2024-03-22T12:07:02;19.10;65.70
58153;DHT22;43967;51.634;5.566;2024-03-22T12:12:23;19.00;65.80
58153;DHT22;43967;51.634;5.566;2024-03-22T12:17:45;19.10;66.10
58153;DHT22;43967;51.634;5.566;2024-03-22T12:23:06;19.20;66.20
58153;DHT22;43967;51.634;5.566;2024-03-22T12:28:27;19.20;66.20
58153;DHT22;43967;51.634;5.566;2024-03-22T12:33:49;19.30;66.40
58153;DHT22;43967;51.634;5.566;2024-03-22T12:39:10;19.30;66.40
58153;DHT22;43967;51.634;5.566;2024-03-22T12:44:31;19.30;66.40
58153;DHT22;43967;51.634;5.566;2024-03-22T12:49:52;19.20;66.60
58153;DHT22;43967;51.634;5.566;2024-03-22T12:55:14;19.20;66.30
58153;DHT22;43967;51.634;5.566;2024-03-22T13:00:35;19.20;66.30
58153;DHT22;43967;51.634;5.566;2024-03-22T13:05:56;19.30;66.40
58153;DHT22;43967;51.634;5.566;2024-03-22T13:11:17;19.30;66.30
58153;DHT22;43967;51.634;5.566;2024-03-22T13:16:39;19.30;66.30
58153;DHT22;43967;51.634;5.566;2024-03-22T13:22:00;19.40;66.20
58153;DHT22;43967;51.634;5.566;2024-03-22T13:27:21;19.30;66.10
58153;DHT22;43967;51.634;5.566;2024-03-22T13:32:43;19.20;66.00
58153;DHT22;43967;51.634;5.566;2024-03-22T13:38:04;19.10;65.80
58153;DHT22;43967;51.634;5.566;2024-03-22T13:43:26;19.10;65.70
58153;DHT22;43967;51.634;5.566;2024-03-22T13:48:47;19.10;65.60
58153;DHT22;43967;51.634;5.566;2024-03-22T13:54:09;19.10;65.60
58153;DHT22;43967;51.634;5.566;2024-03-22T13:59:30;19.00;65.50
58153;DHT22;43967;51.634;5.566;2024-03-22T14:04:51;19.00;65.40
58153;DHT22;43967;51.634;5.566;2024-03-22T14:10:13;19.00;65.40
58153;DHT22;43967;51.634;5.566;2024-03-22T14:15:34;19.00;65.30
58153;DHT22;43967;51.634;5.566;2024-03-22T14:20:55;19.00;65.20
58153;DHT22;43967;51.634;5.566;2024-03-22T14:26:17;19.00;65.20
58153;DHT22;43967;51.634;5.566;2024-03-22T14:31:39;19.00;65.10
58153;DHT22;43967;51.634;5.566;2024-03-22T14:37:00;19.00;65.00
58153;DHT22;43967;51.634;5.566;2024-03-22T14:42:21;18.90;64.90
58153;DHT22;43967;51.634;5.566;2024-03-22T14:47:43;18.90;64.80
58153;DHT22;43967;51.634;5.566;2024-03-22T14:53:04;18.90;64.80
58153;DHT22;43967;51.634;5.566;2024-03-22T14:58:26;18.90;64.70
58153;DHT22;43967;51.634;5.566;2024-03-22T15:03:47;18.90;64.70
58153;DHT22;43967;51.634;5.566;2024-03-22T15:09:08;18.90;64.70
58153;DHT22;43967;51.634;5.566;2024-03-22T15:14:29;19.00;64.60
58153;DHT22;43967;51.634;5.566;2024-03-22T15:19:51;19.00;65.10
58153;DHT22;43967;51.634;5.566;2024-03-22T15:25:12;18.90;65.60
58153;DHT22;43967;51.634;5.566;2024-03-22T15:30:33;18.90;66.10
58153;DHT22;43967;51.634;5.566;2024-03-22T15:35:56;18.90;66.10
58153;DHT22;43967;51.634;5.566;2024-03-22T15:41:17;18.90;66.00
58153;DHT22;43967;51.634;5.566;2024-03-22T15:46:42;18.90;65.90
58153;DHT22;43967;51.634;5.566;2024-03-22T15:52:04;18.90;65.60
58153;DHT22;43967;51.634;5.566;2024-03-22T15:57:25;18.90;65.50
58153;DHT22;43967;51.634;5.566;2024-03-22T16:02:47;18.90;65.30
58153;DHT22;43967;51.634;5.566;2024-03-22T16:08:09;18.90;65.20
58153;DHT22;43967;51.634;5.566;2024-03-22T16:13:30;18.90;65.10
58153;DHT22;43967;51.634;5.566;2024-03-22T16:18:51;18.80;64.90
58153;DHT22;43967;51.634;5.566;2024-03-22T16:24:13;18.80;64.80
58153;DHT22;43967;51.634;5.566;2024-03-22T16:29:34;18.80;64.80
58153;DHT22;43967;51.634;5.566;2024-03-22T16:34:55;18.80;64.80
58153;DHT22;43967;51.634;5.566;2024-03-22T16:40:19;18.80;64.70
58153;DHT22;43967;51.634;5.566;2024-03-22T16:45:40;18.80;64.60
58153;DHT22;43967;51.634;5.566;2024-03-22T16:51:01;18.80;64.60
58153;DHT22;43967;51.634;5.566;2024-03-22T16:56:22;18.80;64.60
58153;DHT22;43967;51.634;5.566;2024-03-22T17:01:44;18.70;64.50
58153;DHT22;43967;51.634;5.566;2024-03-22T17:07:05;18.70;64.10
58153;DHT22;43967;51.634;5.566;2024-03-22T17:12:26;18.70;63.90
58153;DHT22;43967;51.634;5.566;2024-03-22T17:17:48;18.70;63.70
58153;DHT22;43967;51.634;5.566;2024-03-22T17:23:09;18.70;63.60
58153;DHT22;43967;51.634;5.566;2024-03-22T17:28:30;18.70;63.20
58153;DHT22;43967;51.634;5.566;2024-03-22T17:33:51;18.70;63.00
58153;DHT22;43967;51.634;5.566;2024-03-22T17:39:13;18.70;62.90
58153;DHT22;43967;51.634;5.566;2024-03-22T17:44:35;18.70;62.90
58153;DHT22;43967;51.634;5.566;2024-03-22T17:49:56;18.70;62.90
58153;DHT22;43967;51.634;5.566;2024-03-22T17:55:18;18.70;62.90
58153;DHT22;43967;51.634;5.566;2024-03-22T18:00:39;18.60;63.50
58153;DHT22;43967;51.634;5.566;2024-03-22T18:06:00;18.70;62.90
58153;DHT22;43967;51.634;5.566;2024-03-22T18:11:22;18.70;62.90
58153;DHT22;43967;51.634;5.566;2024-03-22T18:16:43;18.70;62.80
58153;DHT22;43967;51.634;5.566;2024-03-22T18:22:04;18.70;62.70
58153;DHT22;43967;51.634;5.566;2024-03-22T18:27:26;18.60;62.70
58153;DHT22;43967;51.634;5.566;2024-03-22T18:32:48;18.60;62.60
58153;DHT22;43967;51.634;5.566;2024-03-22T18:38:12;18.60;62.60
58153;DHT22;43967;51.634;5.566;2024-03-22T18:43:33;18.60;62.60
58153;DHT22;43967;51.634;5.566;2024-03-22T18:48:55;18.60;62.50
58153;DHT22;43967;51.634;5.566;2024-03-22T18:54:16;18.60;62.50
58153;DHT22;43967;51.634;5.566;2024-03-22T18:59:39;18.60;62.50
58153;DHT22;43967;51.634;5.566;2024-03-22T19:05:01;18.60;62.40
58153;DHT22;43967;51.634;5.566;2024-03-22T19:10:23;18.60;62.30
58153;DHT22;43967;51.634;5.566;2024-03-22T19:15:53;18.60;62.30
58153;DHT22;43967;51.634;5.566;2024-03-22T19:21:15;18.60;62.30
58153;DHT22;43967;51.634;5.566;2024-03-22T19:26:37;18.60;62.30
58153;DHT22;43967;51.634;5.566;2024-03-22T19:31:58;18.60;62.40
58153;DHT22;43967;51.634;5.566;2024-03-22T19:37:19;18.60;62.40
58153;DHT22;43967;51.634;5.566;2024-03-22T19:42:40;18.50;62.30
58153;DHT22;43967;51.634;5.566;2024-03-22T19:48:02;18.50;62.30
58153;DHT22;43967;51.634;5.566;2024-03-22T19:53:23;18.50;62.30
58153;DHT22;43967;51.634;5.566;2024-03-22T19:58:45;18.50;62.20
58153;DHT22;43967;51.634;5.566;2024-03-22T20:04:06;18.50;62.20
58153;DHT22;43967;51.634;5.566;2024-03-22T20:09:27;18.50;62.20
58153;DHT22;43967;51.634;5.566;2024-03-22T20:14:48;18.50;62.10
58153;DHT22;43967;51.634;5.566;2024-03-22T20:20:10;18.50;62.10
58153;DHT22;43967;51.634;5.566;2024-03-22T20:25:33;18.50;62.10
58153;DHT22;43967;51.634;5.566;2024-03-22T20:30:54;18.50;62.10
58153;DHT22;43967;51.634;5.566;2024-03-22T20:36:16;18.50;62.00
